Time;durP1;ratioP1;P1;durP2;ratioP2;P2;SDS_P1;SDS_P2;PMS_P1;PMS_P2;Temp;Humidity;BMP_temperature;BMP_pressure;BME280_temperature;BME280_humidity;BME280_pressure;Samples;Min_cycle;Max_cycle;Signal;HPM_P1;HPM_P2
2023/08/30 00:01:42;;;;;;;7.67;6.87;;;14.10;99.90;;;;;;5051009;28;20240;-59
2023/08/30 00:04:09;;;;;;;7.53;6.87;;;14.10;99.90;;;;;;5051292;28;20209;-58
2023/08/30 00:06:36;;;;;;;7.40;6.70;;;14.10;99.90;;;;;;5050844;28;20217;-58
2023/08/30 00:09:03;;;;;;;7.00;6.30;;;14.20;99.90;;;;;;5051040;28;20232;-57
2023/08/30 00:11:32;;;;;;;7.07;6.37;;;14.20;99.90;;;;;;5050907;28;20237;-57
2023/08/30 00:14:05;;;;;;;6.70;6.10;;;14.30;99.90;;;;;;5051182;28;20693;-59
2023/08/30 00:16:32;;;;;;;6.90;6.30;;;14.40;99.90;;;;;;5050783;28;20649;-58
2023/08/30 00:18:59;;;;;;;7.10;6.40;;;14.40;99.90;;;;;;5051029;28;20232;-59
2023/08/30 00:21:27;;;;;;;7.77;7.03;;;14.50;99.90;;;;;;5050904;28;20257;-56
2023/08/30 00:23:53;;;;;;;6.83;6.27;;;14.50;99.90;;;;;;5051156;28;20729;-58
2023/08/30 00:26:20;;;;;;;7.87;6.20;;;14.60;99.90;;;;;;5053550;28;20255;-57
2023/08/30 00:28:47;;;;;;;6.60;6.07;;;14.50;99.90;;;;;;5055158;28;20236;-59
2023/08/30 00:31:15;;;;;;;7.00;6.40;;;14.70;99.90;;;;;;5054835;28;20693;-57
2023/08/30 00:33:41;;;;;;;6.50;5.57;;;14.70;99.90;;;;;;5055245;28;20212;-59
2023/08/30 00:36:08;;;;;;;7.83;6.23;;;14.70;99.90;;;;;;5054779;28;20579;-59
2023/08/30 00:38:35;;;;;;;6.50;5.90;;;14.80;99.90;;;;;;5055199;28;20303;-57
2023/08/30 00:41:01;;;;;;;6.23;5.73;;;14.80;99.90;;;;;;5054975;28;20202;-58
2023/08/30 00:43:28;;;;;;;5.80;5.40;;;14.70;99.90;;;;;;5055205;28;20216;-58
2023/08/30 00:45:55;;;;;;;6.43;5.93;;;14.60;99.90;;;;;;5054605;28;20216;-57
2023/08/30 00:48:23;;;;;;;6.23;5.63;;;14.40;99.90;;;;;;5054623;28;20217;-58
2023/08/30 00:50:50;;;;;;;5.90;5.50;;;14.30;99.90;;;;;;5054952;28;20210;-58
2023/08/30 00:53:17;;;;;;;5.87;5.37;;;14.20;99.90;;;;;;5054538;28;20241;-57
2023/08/30 00:55:44;;;;;;;6.30;5.80;;;14.20;99.90;;;;;;5054617;28;20213;-59
2023/08/30 00:58:12;;;;;;;6.63;6.03;;;14.20;99.90;;;;;;5054692;28;20279;-60
2023/08/30 01:00:40;;;;;;;6.23;5.73;;;14.20;99.90;;;;;;5054699;28;20206;-59
2023/08/30 01:03:08;;;;;;;6.90;6.33;;;14.30;99.90;;;;;;5054996;28;20236;-59
2023/08/30 01:05:36;;;;;;;6.47;5.93;;;14.30;99.90;;;;;;5055904;28;20233;-59
2023/08/30 01:08:03;;;;;;;7.00;6.40;;;14.30;99.90;;;;;;5055173;28;20221;-59
2023/08/30 01:10:46;;;;;;;7.07;6.37;;;14.20;99.90;;;;;;5055221;28;20257;-57
2023/08/30 01:13:19;;;;;;;7.27;6.30;;;14.10;99.90;;;;;;5055089;28;20295;-60
2023/08/30 01:15:48;;;;;;;7.43;6.53;;;14.10;99.90;;;;;;5054203;28;20583;-60
2023/08/30 01:18:18;;;;;;;7.93;7.13;;;14.00;99.90;;;;;;5054464;28;20210;-58
2023/08/30 01:20:48;;;;;;;7.37;6.67;;;13.90;99.90;;;;;;5054393;28;20260;-58
2023/08/30 01:23:25;;;;;;;7.17;6.57;;;13.90;99.90;;;;;;5054485;28;20226;-58
2023/08/30 01:25:58;;;;;;;8.13;7.10;;;13.80;99.90;;;;;;5053789;28;20708;-58
2023/08/30 01:28:31;;;;;;;7.67;6.97;;;13.80;99.90;;;;;;5054179;28;20268;-59
2023/08/30 01:30:59;;;;;;;8.13;7.33;;;13.80;99.90;;;;;;5054652;28;20214;-58
2023/08/30 01:33:26;;;;;;;7.70;6.87;;;13.80;99.90;;;;;;5054873;28;20575;-57
2023/08/30 01:35:54;;;;;;;8.43;7.73;;;13.80;99.90;;;;;;5053699;28;20205;-58
2023/08/30 01:38:22;;;;;;;8.60;7.90;;;13.70;99.90;;;;;;5053708;28;20563;-59
2023/08/30 01:40:49;;;;;;;7.97;7.27;;;13.70;99.90;;;;;;5053854;28;20669;-58
2023/08/30 01:43:17;;;;;;;9.10;8.27;;;13.60;99.90;;;;;;5053909;28;20327;-58
2023/08/30 01:45:45;;;;;;;8.90;8.10;;;13.60;99.90;;;;;;5053778;28;20209;-58
2023/08/30 01:48:15;;;;;;;8.43;7.73;;;13.50;99.90;;;;;;5053829;28;20234;-59
2023/08/30 01:50:43;;;;;;;9.50;8.40;;;13.50;99.90;;;;;;5054286;28;20210;-58
2023/08/30 01:53:11;;;;;;;9.27;8.47;;;13.40;99.90;;;;;;5054163;28;20241;-58
2023/08/30 01:55:38;;;;;;;9.40;8.50;;;13.40;99.90;;;;;;5054493;28;20586;-58
2023/08/30 01:58:06;;;;;;;10.00;9.10;;;13.30;99.90;;;;;;5054065;28;20237;-59
2023/08/30 02:00:33;;;;;;;9.80;8.80;;;13.30;99.90;;;;;;5053741;28;20216;-58
2023/08/30 02:03:08;;;;;;;11.50;8.77;;;13.30;99.90;;;;;;5053543;28;20230;-58
2023/08/30 02:05:40;;;;;;;10.23;9.33;;;13.30;99.90;;;;;;5053413;28;20315;-58
2023/08/30 02:08:12;;;;;;;10.83;9.73;;;13.30;99.90;;;;;;5053806;28;20220;-58
2023/08/30 02:10:45;;;;;;;11.63;10.53;;;13.30;99.90;;;;;;5053742;28;20216;-58
2023/08/30 02:13:14;;;;;;;11.37;10.27;;;13.30;99.90;;;;;;5053761;28;20228;-59
2023/08/30 02:15:43;;;;;;;11.80;10.70;;;13.40;99.90;;;;;;5053180;28;20205;-58
2023/08/30 02:18:11;;;;;;;11.73;10.03;;;13.40;99.90;;;;;;5052898;28;20680;-59
2023/08/30 02:20:38;;;;;;;13.07;10.63;;;13.50;99.90;;;;;;5053189;28;20216;-58
2023/08/30 02:23:05;;;;;;;10.57;9.57;;;13.50;99.90;;;;;;5053095;28;20237;-60
2023/08/30 02:25:32;;;;;;;10.80;9.90;;;13.70;99.90;;;;;;5052812;28;20202;-60
2023/08/30 02:27:58;;;;;;;10.27;9.27;;;13.60;99.90;;;;;;5052802;28;20202;-58
2023/08/30 02:30:25;;;;;;;9.43;8.63;;;13.70;99.90;;;;;;5053093;28;20648;-57
2023/08/30 02:32:52;;;;;;;9.90;9.00;;;13.70;99.90;;;;;;5053280;28;20739;-59
2023/08/30 02:35:20;;;;;;;9.10;8.30;;;13.80;99.90;;;;;;5053425;28;20209;-58
2023/08/30 02:37:47;;;;;;;12.80;9.13;;;13.80;99.90;;;;;;5053411;28;20206;-57
2023/08/30 02:40:14;;;;;;;9.17;8.37;;;13.90;99.90;;;;;;5052902;28;20201;-57
2023/08/30 02:42:40;;;;;;;10.27;9.37;;;13.90;99.90;;;;;;5052473;28;20236;-59
2023/08/30 02:45:08;;;;;;;9.00;8.17;;;14.00;99.90;;;;;;5052358;28;20210;-58
2023/08/30 02:47:35;;;;;;;9.10;8.30;;;14.00;99.90;;;;;;5051840;28;20578;-58
2023/08/30 02:50:02;;;;;;;8.50;7.70;;;14.00;99.90;;;;;;5052349;28;20229;-57
2023/08/30 02:52:30;;;;;;;7.50;6.90;;;14.00;99.90;;;;;;5052229;28;20732;-57
2023/08/30 02:54:56;;;;;;;8.30;7.33;;;13.90;99.90;;;;;;5052502;28;20271;-58
2023/08/30 02:57:23;;;;;;;8.33;7.63;;;13.80;99.90;;;;;;5052197;28;20212;-58
2023/08/30 02:59:50;;;;;;;7.70;7.10;;;13.60;99.90;;;;;;5052340;28;20205;-57
2023/08/30 03:02:17;;;;;;;8.13;7.33;;;13.50;99.90;;;;;;5052485;28;20320;-57
2023/08/30 03:04:43;;;;;;;8.30;7.50;;;13.40;99.90;;;;;;5052271;28;20560;-58
2023/08/30 03:07:10;;;;;;;8.40;7.70;;;13.30;99.90;;;;;;5052062;28;20209;-58
2023/08/30 03:09:39;;;;;;;8.13;7.43;;;13.20;99.90;;;;;;5052500;28;20249;-57
2023/08/30 03:12:06;;;;;;;8.80;8.03;;;13.10;99.90;;;;;;5052317;28;20304;-58
2023/08/30 03:14:33;;;;;;;8.87;8.07;;;13.10;99.90;;;;;;5052192;28;20212;-57
2023/08/30 03:17:00;;;;;;;8.07;7.23;;;13.00;99.90;;;;;;5051911;28;20259;-57
2023/08/30 03:19:26;;;;;;;8.00;7.33;;;13.00;99.90;;;;;;5052013;28;20229;-58
2023/08/30 03:21:53;;;;;;;8.63;7.83;;;13.00;99.90;;;;;;5051770;28;20708;-58
2023/08/30 03:24:20;;;;;;;8.27;7.57;;;13.00;99.90;;;;;;5051963;28;20554;-58
2023/08/30 03:26:48;;;;;;;9.30;8.30;;;13.10;99.90;;;;;;5051636;28;20214;-58
2023/08/30 03:29:14;;;;;;;9.20;8.37;;;13.20;99.90;;;;;;5052402;28;20241;-57
2023/08/30 03:31:43;;;;;;;9.50;8.67;;;13.30;99.90;;;;;;5052124;28;20708;-58
2023/08/30 03:34:09;;;;;;;9.33;8.37;;;13.40;99.90;;;;;;5052177;28;20218;-60
2023/08/30 03:36:36;;;;;;;10.83;9.60;;;13.50;99.90;;;;;;5051513;28;20212;-58
2023/08/30 03:39:03;;;;;;;10.20;9.20;;;13.60;99.90;;;;;;5051671;28;20201;-58
2023/08/30 03:41:30;;;;;;;9.73;8.73;;;13.60;99.90;;;;;;5051366;28;20257;-60
2023/08/30 03:43:58;;;;;;;10.13;8.03;;;13.70;99.90;;;;;;5051710;28;20209;-58
2023/08/30 03:46:25;;;;;;;9.43;8.63;;;13.70;99.90;;;;;;5051356;28;20209;-57
2023/08/30 03:48:51;;;;;;;9.57;8.67;;;13.80;99.90;;;;;;5051391;28;20229;-58
2023/08/30 03:51:18;;;;;;;8.77;8.00;;;13.80;99.90;;;;;;5051195;28;20603;-59
2023/08/30 03:53:46;;;;;;;9.27;8.47;;;13.80;99.90;;;;;;5051362;28;20205;-57
2023/08/30 03:56:13;;;;;;;8.73;7.83;;;13.80;99.90;;;;;;5051345;28;20255;-58
2023/08/30 03:58:39;;;;;;;9.13;7.87;;;13.80;99.90;;;;;;5051447;28;20213;-58
2023/08/30 04:01:07;;;;;;;10.17;8.17;;;13.70;99.90;;;;;;5051540;28;20273;-58
2023/08/30 04:03:34;;;;;;;8.20;7.50;;;13.80;99.90;;;;;;5051503;28;20201;-58
2023/08/30 04:06:01;;;;;;;9.13;8.23;;;13.80;99.90;;;;;;5051161;28;20216;-58
2023/08/30 04:08:27;;;;;;;8.37;7.57;;;13.80;99.90;;;;;;5051913;28;20684;-60
2023/08/30 04:10:54;;;;;;;9.20;8.40;;;14.00;99.90;;;;;;5051724;28;20234;-58
2023/08/30 04:13:21;;;;;;;8.87;8.07;;;14.00;99.90;;;;;;5051488;28;20206;-58
2023/08/30 04:15:48;;;;;;;8.97;8.20;;;14.00;99.90;;;;;;5050890;28;20205;-58
2023/08/30 04:18:16;;;;;;;9.03;8.13;;;14.00;99.90;;;;;;5051121;28;20210;-58
2023/08/30 04:20:45;;;;;;;9.07;8.27;;;14.00;99.90;;;;;;5050959;28;20208;-59
2023/08/30 04:23:12;;;;;;;10.23;9.27;;;14.10;99.90;;;;;;5051047;28;20230;-57
2023/08/30 04:25:39;;;;;;;9.40;8.57;;;14.10;99.90;;;;;;5051073;28;20213;-61
2023/08/30 04:28:06;;;;;;;10.03;9.13;;;14.10;99.90;;;;;;5051230;28;20280;-57
2023/08/30 04:30:33;;;;;;;9.37;8.50;;;14.10;99.90;;;;;;5051038;28;20710;-58
2023/08/30 04:33:02;;;;;;;9.83;8.93;;;14.10;99.90;;;;;;5050745;28;20229;-57
2023/08/30 04:35:31;;;;;;;10.07;8.97;;;14.10;99.90;;;;;;5051254;28;20216;-57
2023/08/30 04:37:59;;;;;;;9.00;8.20;;;14.10;99.90;;;;;;5050776;28;20202;-59
2023/08/30 04:40:26;;;;;;;9.90;8.97;;;14.10;99.90;;;;;;5051089;28;20288;-58
2023/08/30 04:42:53;;;;;;;12.60;10.00;;;14.10;99.90;;;;;;5050955;28;20229;-57
2023/08/30 04:45:20;;;;;;;10.97;9.97;;;14.10;99.90;;;;;;5050897;28;20210;-60
2023/08/30 04:47:47;;;;;;;9.70;8.70;;;14.10;99.90;;;;;;5051009;28;20689;-58
2023/08/30 04:50:14;;;;;;;10.23;9.23;;;14.20;99.90;;;;;;5051437;28;20236;-58
2023/08/30 04:52:43;;;;;;;9.03;8.23;;;14.20;99.90;;;;;;5051071;28;20725;-58
2023/08/30 04:55:10;;;;;;;10.07;8.70;;;14.20;99.90;;;;;;5050914;28;20740;-58
2023/08/30 04:57:37;;;;;;;9.77;8.87;;;14.30;99.90;;;;;;5050498;28;20209;-58
2023/08/30 05:00:05;;;;;;;9.57;8.77;;;14.30;99.90;;;;;;5050562;28;20709;-60
2023/08/30 05:02:32;;;;;;;8.93;8.13;;;14.40;99.90;;;;;;5050275;28;20226;-60
2023/08/30 05:04:59;;;;;;;8.93;8.13;;;14.50;99.90;;;;;;5050454;28;20572;-58
2023/08/30 05:07:26;;;;;;;9.57;8.57;;;14.60;99.90;;;;;;5050192;28;20205;-58
2023/08/30 05:09:54;;;;;;;9.67;8.77;;;14.60;99.90;;;;;;5050259;28;20225;-60
2023/08/30 05:12:20;;;;;;;9.30;8.40;;;14.50;99.90;;;;;;5053082;28;20237;-59
2023/08/30 05:14:47;;;;;;;9.00;8.20;;;14.50;99.90;;;;;;5054292;28;20212;-59
2023/08/30 05:17:14;;;;;;;8.40;7.60;;;14.50;99.90;;;;;;5053888;28;20221;-58
2023/08/30 05:19:40;;;;;;;8.30;7.60;;;14.50;99.90;;;;;;5054165;28;20248;-58
2023/08/30 05:22:07;;;;;;;9.13;6.97;;;14.50;99.90;;;;;;5053915;28;20225;-57
2023/08/30 05:24:34;;;;;;;7.60;6.90;;;14.40;99.90;;;;;;5053852;28;20210;-57
2023/08/30 05:27:03;;;;;;;8.30;7.60;;;14.30;99.90;;;;;;5053732;28;20588;-57
2023/08/30 05:29:29;;;;;;;9.00;8.10;;;14.30;99.90;;;;;;5053959;28;20339;-58
2023/08/30 05:31:56;;;;;;;8.20;7.50;;;14.30;99.90;;;;;;5054403;28;20234;-57
2023/08/30 05:34:23;;;;;;;9.20;7.87;;;14.30;99.90;;;;;;5054439;28;20206;-59
2023/08/30 05:36:50;;;;;;;8.33;7.40;;;14.20;99.90;;;;;;5053538;28;20209;-58
2023/08/30 05:39:17;;;;;;;8.90;8.00;;;14.30;99.90;;;;;;5053726;28;20209;-58
2023/08/30 05:41:43;;;;;;;8.57;7.77;;;14.40;99.90;;;;;;5053665;28;20233;-58
2023/08/30 05:44:11;;;;;;;8.93;8.13;;;14.40;99.90;;;;;;5053286;28;20206;-58
2023/08/30 05:46:38;;;;;;;8.80;8.00;;;14.60;99.90;;;;;;5053866;28;20259;-57
2023/08/30 05:49:05;;;;;;;8.17;7.47;;;14.70;99.90;;;;;;5053705;28;20209;-57
2023/08/30 05:51:32;;;;;;;8.43;7.63;;;14.80;99.90;;;;;;5053448;28;20226;-58
2023/08/30 05:53:58;;;;;;;9.97;8.00;;;14.90;99.90;;;;;;5053175;28;20705;-58
2023/08/30 05:56:25;;;;;;;8.93;8.03;;;15.00;99.90;;;;;;5052739;28;20206;-57
2023/08/30 05:58:52;;;;;;;8.63;7.83;;;15.10;99.90;;;;;;5053012;28;20208;-57
2023/08/30 06:01:20;;;;;;;8.43;7.63;;;15.20;99.90;;;;;;5053429;28;20217;-57
2023/08/30 06:03:47;;;;;;;8.30;7.50;;;15.40;99.90;;;;;;5053348;28;20228;-57
2023/08/30 06:06:14;;;;;;;8.53;7.70;;;15.40;99.90;;;;;;5053031;28;20209;-60
2023/08/30 06:08:40;;;;;;;10.07;6.60;;;15.50;99.90;;;;;;5053044;28;20206;-58
2023/08/30 06:11:07;;;;;;;8.17;7.47;;;15.50;99.90;;;;;;5052937;28;20221;-58
2023/08/30 06:13:34;;;;;;;7.40;6.80;;;15.60;99.90;;;;;;5053035;28;20209;-59
2023/08/30 06:16:01;;;;;;;8.83;6.53;;;15.60;99.90;;;;;;5052877;28;20208;-59
2023/08/30 06:18:31;;;;;;;7.97;7.20;;;15.60;99.90;;;;;;5053177;28;20205;-58
2023/08/30 06:20:58;;;;;;;6.50;5.90;;;15.60;99.90;;;;;;5053054;28;20201;-58
2023/08/30 06:23:25;;;;;;;6.87;5.80;;;15.50;99.90;;;;;;5052965;28;20580;-58
2023/08/30 06:25:55;;;;;;;7.17;6.57;;;15.40;99.90;;;;;;5052419;28;20655;-58
2023/08/30 06:28:22;;;;;;;6.73;6.13;;;15.50;99.90;;;;;;5052942;28;20599;-57
2023/08/30 06:30:48;;;;;;;7.00;5.87;;;15.50;99.90;;;;;;5052764;28;20225;-59
2023/08/30 06:33:15;;;;;;;7.97;6.27;;;15.50;99.90;;;;;;5052953;28;20232;-58
2023/08/30 06:35:43;;;;;;;6.43;5.93;;;15.50;99.90;;;;;;5052383;28;20202;-57
2023/08/30 06:38:10;;;;;;;6.43;5.93;;;15.60;99.90;;;;;;5052447;28;20206;-57
2023/08/30 06:40:37;;;;;;;6.60;6.00;;;15.60;99.90;;;;;;5052807;28;20205;-59
2023/08/30 06:43:04;;;;;;;7.07;6.20;;;15.70;99.90;;;;;;5052782;28;20233;-58
2023/08/30 06:45:31;;;;;;;6.97;6.33;;;15.80;99.90;;;;;;5052642;28;20209;-59
2023/08/30 06:47:57;;;;;;;6.47;5.88;;;16.00;99.90;;;;;;5052257;28;20212;-58
2023/08/30 06:50:24;;;;;;;6.40;5.80;;;16.20;99.90;;;;;;5052623;28;20324;-57
2023/08/30 06:52:52;;;;;;;6.60;5.90;;;16.30;99.90;;;;;;5052147;28;20233;-60
2023/08/30 06:55:19;;;;;;;5.80;5.30;;;16.50;99.90;;;;;;5052354;28;20214;-57
2023/08/30 06:57:50;;;;;;;6.07;5.57;;;16.60;99.90;;;;;;5052376;28;20557;-58
2023/08/30 07:00:18;;;;;;;6.20;5.25;;;16.80;99.90;;;;;;5052376;28;20255;-58
2023/08/30 07:02:45;;;;;;;6.10;5.28;;;16.90;99.90;;;;;;5052220;28;20598;-57
2023/08/30 07:05:12;;;;;;;5.65;5.15;;;17.00;99.90;;;;;;5052485;28;20308;-58
2023/08/30 07:07:39;;;;;;;5.25;4.85;;;17.10;99.90;;;;;;5051628;28;20288;-58
2023/08/30 07:10:08;;;;;;;6.43;4.93;;;17.30;99.90;;;;;;5052067;28;20329;-58
2023/08/30 07:12:35;;;;;;;5.68;4.57;;;17.50;99.90;;;;;;5051894;28;20709;-59
2023/08/30 07:15:03;;;;;;;5.03;4.60;;;17.60;99.90;;;;;;5051950;28;20217;-58
2023/08/30 07:17:30;;;;;;;5.65;5.10;;;17.70;99.90;;;;;;5051429;28;20201;-58
2023/08/30 07:19:57;;;;;;;6.50;5.05;;;17.70;99.90;;;;;;5051980;28;20202;-58
2023/08/30 07:22:23;;;;;;;5.32;4.82;;;17.80;99.90;;;;;;5052203;28;20236;-58
2023/08/30 07:24:51;;;;;;;6.05;4.68;;;17.90;99.90;;;;;;5051944;28;20213;-58
2023/08/30 07:27:19;;;;;;;4.85;4.45;;;18.10;99.90;;;;;;5051676;28;20217;-58
2023/08/30 07:29:45;;;;;;;4.72;4.32;;;18.20;99.90;;;;;;5051860;28;20209;-58
2023/08/30 07:32:12;;;;;;;3.92;3.63;;;18.30;99.90;;;;;;5051584;28;20226;-59
2023/08/30 07:34:39;;;;;;;4.70;4.05;;;18.40;99.90;;;;;;5051223;28;20618;-58
2023/08/30 07:37:05;;;;;;;8.55;4.07;;;18.50;99.90;;;;;;5051494;28;20581;-58
2023/08/30 07:39:32;;;;;;;26.65;23.88;;;18.70;99.90;;;;;;5051926;28;20210;-59
2023/08/30 07:41:59;;;;;;;5.50;4.47;;;18.90;99.90;;;;;;5051654;28;20221;-58
2023/08/30 07:44:27;;;;;;;119.88;73.10;;;19.10;99.90;;;;;;5051422;28;20585;-58
2023/08/30 07:46:53;;;;;;;350.88;201.27;;;19.40;99.90;;;;;;5051177;28;20214;-58
2023/08/30 07:49:20;;;;;;;29.42;18.52;;;19.70;99.90;;;;;;5051335;28;20256;-60
2023/08/30 07:51:47;;;;;;;8.77;5.75;;;20.00;99.90;;;;;;5051757;28;20233;-61
2023/08/30 07:54:13;;;;;;;3.95;3.00;;;20.30;99.90;;;;;;5051366;28;20312;-61
2023/08/30 07:56:40;;;;;;;3.25;2.90;;;20.40;99.90;;;;;;5051178;28;20202;-62
2023/08/30 07:59:07;;;;;;;3.67;2.80;;;20.60;99.90;;;;;;5051390;28;20696;-60
2023/08/30 08:01:35;;;;;;;4.28;2.65;;;20.70;99.90;;;;;;5051192;28;20221;-60
2023/08/30 08:04:02;;;;;;;2.88;2.58;;;20.80;99.90;;;;;;5051207;28;20688;-59
2023/08/30 08:06:29;;;;;;;7.75;2.85;;;20.70;99.90;;;;;;5051415;28;20296;-61
2023/08/30 08:08:56;;;;;;;2.70;2.50;;;20.80;99.90;;;;;;5051244;28;20616;-60
2023/08/30 08:11:22;;;;;;;3.00;2.40;;;20.90;99.90;;;;;;5051431;28;20607;-61
2023/08/30 08:13:49;;;;;;;4.68;2.63;;;21.20;99.90;;;;;;5051388;28;20283;-60
2023/08/30 08:16:15;;;;;;;2.60;2.40;;;21.50;99.90;;;;;;5050961;28;20212;-61
2023/08/30 08:18:43;;;;;;;2.65;2.30;;;21.60;99.90;;;;;;5051434;28;20205;-60
2023/08/30 08:21:10;;;;;;;3.25;2.47;;;21.80;99.90;;;;;;5051454;28;20201;-61
2023/08/30 08:23:37;;;;;;;3.30;3.00;;;21.90;99.90;;;;;;5051664;28;20217;-61
2023/08/30 08:26:04;;;;;;;3.20;2.40;;;21.90;99.90;;;;;;5050914;28;20213;-60
2023/08/30 08:28:30;;;;;;;3.08;2.20;;;22.00;99.90;;;;;;5051703;28;20217;-61
2023/08/30 08:30:57;;;;;;;2.78;2.55;;;22.00;99.90;;;;;;5051340;28;20228;-61
2023/08/30 08:33:24;;;;;;;3.88;2.53;;;22.20;99.90;;;;;;5051671;28;20220;-60
2023/08/30 08:35:52;;;;;;;4.72;2.55;;;22.50;99.90;;;;;;5051188;28;20233;-61
2023/08/30 08:38:18;;;;;;;3.85;2.58;;;22.40;99.90;;;;;;5051541;28;20216;-61
2023/08/30 08:40:45;;;;;;;4.28;2.50;;;22.30;99.90;;;;;;5051809;28;20213;-61
2023/08/30 08:43:13;;;;;;;3.70;2.72;;;22.30;99.90;;;;;;5051336;28;20626;-61
2023/08/30 08:45:40;;;;;;;3.30;2.35;;;22.40;99.90;;;;;;5051406;28;20217;-62
2023/08/30 08:48:07;;;;;;;2.50;2.30;;;22.60;99.90;;;;;;5055592;28;20267;-64
2023/08/30 08:50:35;;;;;;;3.80;2.47;;;22.50;99.90;;;;;;5055656;28;20221;-60
2023/08/30 08:53:04;;;;;;;2.67;2.47;;;22.40;99.90;;;;;;5055717;28;20616;-62
2023/08/30 08:55:34;;;;;;;4.40;2.83;;;22.40;99.90;;;;;;5055436;28;20209;-62
2023/08/30 08:58:02;;;;;;;4.28;2.65;;;22.40;99.90;;;;;;5054794;28;20206;-61
2023/08/30 09:00:31;;;;;;;9.10;5.47;;;22.50;99.90;;;;;;5055387;28;20220;-62
2023/08/30 09:02:58;;;;;;;4.20;3.10;;;22.70;99.90;;;;;;5054908;28;20225;-61
2023/08/30 09:05:25;;;;;;;2.60;2.35;;;22.90;99.90;;;;;;5054499;28;20205;-61
2023/08/30 09:07:53;;;;;;;4.65;2.50;;;22.90;99.90;;;;;;5054345;28;20591;-61
2023/08/30 09:10:22;;;;;;;3.95;2.55;;;23.00;99.90;;;;;;5054359;28;20209;-61
2023/08/30 09:12:49;;;;;;;2.22;2.00;;;23.20;99.90;;;;;;5054555;28;20777;-61
2023/08/30 09:15:16;;;;;;;2.65;2.00;;;23.40;99.90;;;;;;5054555;28;20225;-61
2023/08/30 09:17:43;;;;;;;2.55;2.15;;;23.60;99.90;;;;;;5054085;28;20212;-61
2023/08/30 09:20:11;;;;;;;4.45;2.20;;;23.50;99.90;;;;;;5054353;28;20244;-62
2023/08/30 09:22:42;;;;;;;3.67;3.05;;;23.40;99.90;;;;;;5054318;28;20598;-62
2023/08/30 09:25:10;;;;;;;2.92;1.90;;;23.40;99.90;;;;;;5053981;28;20232;-61
2023/08/30 09:27:41;;;;;;;2.17;1.98;;;23.50;99.90;;;;;;5054081;28;20205;-60
2023/08/30 09:30:10;;;;;;;2.13;1.80;;;23.70;99.90;;;;;;5053880;28;20220;-61
2023/08/30 09:32:41;;;;;;;2.80;1.73;;;23.70;99.90;;;;;;5053924;28;20236;-61
2023/08/30 09:35:08;;;;;;;2.60;1.98;;;23.80;99.90;;;;;;5053784;28;20209;-61
2023/08/30 09:37:35;;;;;;;2.83;1.75;;;23.80;99.90;;;;;;5053742;28;20259;-61
2023/08/30 09:40:03;;;;;;;3.50;2.00;;;23.80;99.90;;;;;;5053860;28;20205;-65
2023/08/30 09:42:29;;;;;;;2.15;1.95;;;23.90;99.90;;;;;;5053969;28;20225;-64
2023/08/30 09:44:58;;;;;;;4.65;1.80;;;24.00;99.90;;;;;;5035288;28;20230;-62
2023/08/30 09:47:26;;;;;;;2.35;2.10;;;24.10;99.90;;;;;;5032591;28;20235;-62
2023/08/30 09:49:56;;;;;;;3.22;1.83;;;24.00;99.90;;;;;;5033301;28;20234;-66
2023/08/30 09:52:25;;;;;;;2.92;1.80;;;23.90;99.90;;;;;;5032340;28;20226;-63
2023/08/30 09:54:53;;;;;;;2.00;1.70;;;23.80;99.90;;;;;;5032541;28;20241;-63
2023/08/30 09:57:21;;;;;;;1.80;1.60;;;23.70;99.90;;;;;;5032247;28;20225;-64
2023/08/30 09:59:50;;;;;;;3.35;1.50;;;23.70;99.90;;;;;;5032695;28;20210;-64
2023/08/30 10:02:18;;;;;;;2.28;1.63;;;23.70;99.90;;;;;;5032468;28;20226;-64
2023/08/30 10:04:46;;;;;;;1.63;1.35;;;23.80;99.90;;;;;;5032166;28;20217;-63
2023/08/30 10:07:14;;;;;;;1.98;1.60;;;23.90;99.90;;;;;;5032317;28;20202;-65
2023/08/30 10:09:42;;;;;;;1.83;1.70;;;23.90;99.90;;;;;;5032463;28;20325;-65
2023/08/30 10:12:08;;;;;;;3.00;1.92;;;23.90;99.90;;;;;;5032056;28;20237;-64
2023/08/30 10:14:35;;;;;;;2.60;1.60;;;23.90;99.90;;;;;;5032156;28;20753;-65
2023/08/30 10:17:04;;;;;;;3.83;1.60;;;23.90;99.90;;;;;;5031227;28;20210;-64
2023/08/30 10:19:33;;;;;;;2.42;1.40;;;23.90;99.90;;;;;;5031913;28;20213;-64
2023/08/30 10:22:04;;;;;;;1.98;1.65;;;23.90;99.90;;;;;;5031985;28;20698;-65
2023/08/30 10:24:33;;;;;;;4.35;1.80;;;23.80;99.90;;;;;;5032031;28;20257;-65
2023/08/30 10:27:03;;;;;;;1.70;1.52;;;23.80;99.90;;;;;;5031645;28;20206;-65
2023/08/30 10:29:31;;;;;;;1.92;1.67;;;23.90;99.90;;;;;;5031668;28;20625;-65
2023/08/30 10:32:03;;;;;;;2.42;2.05;;;23.90;99.90;;;;;;5031391;28;20230;-63
2023/08/30 10:34:35;;;;;;;2.30;1.52;;;23.90;99.90;;;;;;5031989;28;20301;-64
2023/08/30 10:37:03;;;;;;;2.33;1.58;;;24.00;99.90;;;;;;5031661;28;20214;-64
2023/08/30 10:39:37;;;;;;;1.40;1.30;;;24.00;99.90;;;;;;5032152;28;20210;-64
2023/08/30 10:42:10;;;;;;;1.67;1.48;;;24.00;99.90;;;;;;5032634;28;20312;-65
2023/08/30 10:44:47;;;;;;;4.00;1.70;;;24.10;99.90;;;;;;5032018;28;20628;-65
2023/08/30 10:47:19;;;;;;;2.42;1.70;;;24.20;99.90;;;;;;5031248;28;20260;-67
2023/08/30 10:49:49;;;;;;;1.33;1.20;;;24.30;99.90;;;;;;5031573;28;20214;-65
2023/08/30 10:52:16;;;;;;;2.72;1.88;;;24.30;99.90;;;;;;5030832;28;20234;-63
2023/08/30 10:54:43;;;;;;;2.38;1.50;;;24.20;99.90;;;;;;5031262;28;20213;-62
2023/08/30 10:57:14;;;;;;;3.88;1.40;;;24.20;99.90;;;;;;5031514;28;20210;-62
2023/08/30 10:59:41;;;;;;;1.90;1.50;;;24.30;99.90;;;;;;5031657;28;20249;-63
2023/08/30 11:02:08;;;;;;;2.15;1.30;;;24.50;99.90;;;;;;5031623;28;20250;-63
2023/08/30 11:04:41;;;;;;;2.30;1.40;;;24.50;99.90;;;;;;5031452;28;20210;-64
2023/08/30 11:07:09;;;;;;;1.92;1.30;;;24.60;99.90;;;;;;5031096;28;20202;-63
2023/08/30 11:09:40;;;;;;;2.80;1.70;;;24.50;99.90;;;;;;5030962;28;20209;-63
2023/08/30 11:12:07;;;;;;;3.20;1.40;;;24.50;99.90;;;;;;5030926;28;20237;-64
2023/08/30 11:14:34;;;;;;;2.60;1.60;;;24.60;99.90;;;;;;5031534;28;20210;-64
2023/08/30 11:17:01;;;;;;;2.03;1.38;;;24.70;99.90;;;;;;5035227;28;20304;-63
2023/08/30 11:19:31;;;;;;;2.28;1.10;;;24.70;99.90;;;;;;5050704;28;20304;-62
2023/08/30 11:21:57;;;;;;;1.13;1.00;;;24.50;99.90;;;;;;5051053;28;20305;-64
2023/08/30 11:24:25;;;;;;;2.85;1.88;;;24.40;99.90;;;;;;5051054;28;20202;-64
2023/08/30 11:26:54;;;;;;;2.65;0.90;;;24.50;99.90;;;;;;5051008;28;20216;-63
2023/08/30 11:29:21;;;;;;;11.68;1.70;;;24.50;99.90;;;;;;5050648;28;20205;-63
2023/08/30 11:31:47;;;;;;;2.40;1.55;;;24.60;99.90;;;;;;5050831;28;20241;-64
2023/08/30 11:34:14;;;;;;;1.85;1.10;;;24.60;99.90;;;;;;5050652;28;20216;-63
2023/08/30 11:36:41;;;;;;;1.30;1.20;;;24.80;99.90;;;;;;5050802;28;20213;-63
2023/08/30 11:39:08;;;;;;;3.22;1.40;;;25.00;99.90;;;;;;5050757;28;20228;-62
2023/08/30 11:41:39;;;;;;;2.15;1.25;;;25.10;99.90;;;;;;5050199;28;20218;-62
2023/08/30 11:44:06;;;;;;;2.58;1.10;;;25.30;99.90;;;;;;5050708;28;20209;-62
2023/08/30 11:46:33;;;;;;;1.48;1.30;;;25.40;99.90;;;;;;5050062;28;20708;-61
2023/08/30 11:48:59;;;;;;;1.52;1.40;;;25.40;99.90;;;;;;5050235;28;20714;-62
2023/08/30 11:51:26;;;;;;;2.42;1.50;;;25.50;99.90;;;;;;5050581;28;20324;-61
2023/08/30 11:53:54;;;;;;;3.63;1.35;;;25.50;99.90;;;;;;5050277;28;20304;-62
2023/08/30 11:56:21;;;;;;;2.58;1.48;;;25.30;99.90;;;;;;5050327;28;20206;-64
2023/08/30 11:58:49;;;;;;;1.50;1.35;;;25.00;99.90;;;;;;5050493;28;20201;-61
2023/08/30 12:01:16;;;;;;;1.35;1.25;;;24.80;99.90;;;;;;5050057;28;20233;-61
2023/08/30 12:03:42;;;;;;;2.67;1.40;;;24.90;99.90;;;;;;5050261;28;20217;-63
2023/08/30 12:06:12;;;;;;;2.75;1.58;;;25.00;99.90;;;;;;5049906;28;20213;-61
2023/08/30 12:08:39;;;;;;;1.98;1.50;;;25.20;99.90;;;;;;5050317;28;20206;-63
2023/08/30 12:11:06;;;;;;;2.58;1.40;;;25.20;99.90;;;;;;5050221;28;20214;-62
2023/08/30 12:13:34;;;;;;;2.60;1.80;;;25.20;99.90;;;;;;5050162;28;20202;-62
2023/08/30 12:16:03;;;;;;;1.80;1.60;;;25.20;99.90;;;;;;5049720;28;20258;-62
2023/08/30 12:18:33;;;;;;;2.85;1.70;;;25.00;99.90;;;;;;5050027;28;20264;-63
2023/08/30 12:21:01;;;;;;;6.68;5.13;;;24.50;99.90;;;;;;5050282;28;20212;-63
2023/08/30 12:23:29;;;;;;;1.83;1.70;;;24.30;99.90;;;;;;5049987;28;20210;-62
2023/08/30 12:26:04;;;;;;;2.22;1.88;;;24.00;99.90;;;;;;5049740;28;20216;-62
2023/08/30 12:28:32;;;;;;;3.00;1.80;;;23.50;99.90;;;;;;5049948;28;20233;-62
2023/08/30 12:31:00;;;;;;;2.20;2.00;;;23.30;99.90;;;;;;5049829;28;20209;-62
2023/08/30 12:33:28;;;;;;;3.88;2.10;;;23.20;99.90;;;;;;5050152;28;20526;-62
2023/08/30 12:35:56;;;;;;;2.83;2.05;;;23.10;99.90;;;;;;5050100;28;20205;-63
2023/08/30 12:38:23;;;;;;;4.43;2.55;;;22.80;99.90;;;;;;5050339;28;20615;-63
2023/08/30 12:40:50;;;;;;;3.50;2.90;;;22.50;99.90;;;;;;5049943;28;20206;-62
2023/08/30 12:43:18;;;;;;;5.05;2.60;;;22.20;99.90;;;;;;5050117;28;20226;-63
2023/08/30 12:45:45;;;;;;;6.00;3.50;;;21.90;99.90;;;;;;5050070;28;20213;-62
2023/08/30 12:48:15;;;;;;;9.82;4.95;;;21.60;99.90;;;;;;5050602;28;20206;-65